createdAt,value
2019-01-31T00:00:30.299Z,71.59
2019-01-31T00:03:09.353Z,72.85
2019-01-31T00:06:07.476Z,74.29
2019-01-31T00:09:04.121Z,74.83
2019-01-31T00:11:58.464Z,76.09
2019-01-31T00:14:50.557Z,75.74
2019-01-31T00:17:38.363Z,75.75
2019-01-31T00:20:17.016Z,75.85
2019-01-31T00:23:04.891Z,74.03
2019-01-31T00:25:43.533Z,72.96
2019-01-31T00:28:19.291Z,72.42
2019-01-31T00:31:10.520Z,73.44
2019-01-31T00:33:58.351Z,73.10
2019-01-31T00:36:28.255Z,73.59
2019-01-31T00:39:14.884Z,74.73
2019-01-31T00:41:47.458Z,73.42
2019-01-31T00:44:37.874Z,73.94
2019-01-31T00:47:29.179Z,73.29
2019-01-31T00:50:01.871Z,72.14
2019-01-31T00:52:34.411Z,71.47
2019-01-31T00:55:06.902Z,70.79
2019-01-31T00:57:36.711Z,70.53
2019-01-31T01:00:06.568Z,70.34
2019-01-31T01:02:39.373Z,70.04
2019-01-31T01:05:25.955Z,70.68
2019-01-31T01:08:05.650Z,71.35
2019-01-31T01:11:01.185Z,71.14
2019-01-31T01:13:33.790Z,71.26
2019-01-31T01:16:06.338Z,70.80
2019-01-31T01:18:45.194Z,71.01
2019-01-31T01:21:20.782Z,70.90
2019-01-31T01:23:56.827Z,71.11
2019-01-31T01:26:29.494Z,70.92
2019-01-31T01:28:59.290Z,71.39
2019-01-31T01:31:32.156Z,72.28
2019-01-31T01:34:07.828Z,72.14
2019-01-31T01:36:42.953Z,71.49
2019-01-31T01:39:19.394Z,71.05
2019-01-31T01:41:44.596Z,71.09
2019-01-31T01:44:17.395Z,71.10
2019-01-31T01:46:49.973Z,70.51
2019-01-31T01:49:25.542Z,70.98
2019-01-31T01:51:55.304Z,73.15
2019-01-31T01:54:34.047Z,73.96
2019-01-31T01:57:21.912Z,73.22
2019-01-31T02:00:08.212Z,72.35
2019-01-31T02:02:37.971Z,71.79
2019-01-31T02:05:27.491Z,71.34
2019-01-31T02:08:03.146Z,71.24
2019-01-31T02:10:42.012Z,70.65
2019-01-31T02:13:29.644Z,71.72
2019-01-31T02:16:15.968Z,72.70
2019-01-31T02:18:51.680Z,73.65
2019-01-31T02:21:30.697Z,74.26
2019-01-31T02:24:15.487Z,75.02
2019-01-31T02:27:06.753Z,74.85
2019-01-31T02:29:42.143Z,75.22
2019-01-31T02:32:31.806Z,75.12
2019-01-31T02:35:35.265Z,74.19
2019-01-31T02:38:07.923Z,73.69
2019-01-31T02:40:49.746Z,73.48
2019-01-31T02:43:40.671Z,73.27
2019-01-31T02:46:13.409Z,72.86
2019-01-31T02:48:55.496Z,72.79
2019-01-31T02:51:34.435Z,72.50
2019-01-31T02:54:12.960Z,73.62
2019-01-31T02:56:42.724Z,73.56
2019-01-31T02:59:14.069Z,73.94
2019-01-31T03:02:02.095Z,73.38
2019-01-31T03:04:31.851Z,73.26
2019-01-31T03:07:04.347Z,72.54
2019-01-31T03:09:54.669Z,72.12
2019-01-31T03:12:18.972Z,71.41
2019-01-31T03:14:48.324Z,70.97
2019-01-31T03:17:21.103Z,70.98
2019-01-31T03:20:09.147Z,71.02
2019-01-31T03:22:41.646Z,71.52
2019-01-31T03:25:32.681Z,71.88
2019-01-31T03:28:05.703Z,71.53
2019-01-31T03:30:44.741Z,71.16
2019-01-31T03:33:23.536Z,70.62
2019-01-31T03:36:08.408Z,71.86
2019-01-31T03:38:40.911Z,71.28
2019-01-31T03:41:10.778Z,71.25
2019-01-31T03:43:52.886Z,71.47
2019-01-31T03:46:43.823Z,70.96
2019-01-31T03:49:13.613Z,70.76
2019-01-31T03:51:46.354Z,70.44
2019-01-31T03:54:34.540Z,70.78
2019-01-31T03:57:19.319Z,71.20
2019-01-31T03:59:48.200Z,70.97
2019-01-31T04:02:29.838Z,71.69
2019-01-31T04:05:02.686Z,72.31
2019-01-31T04:07:28.841Z,72.04
2019-01-31T04:09:54.987Z,71.32
2019-01-31T04:12:22.086Z,71.22
2019-01-31T04:14:48.300Z,71.17
2019-01-31T04:17:14.497Z,71.12
2019-01-31T04:19:40.684Z,70.84
2019-01-31T04:22:06.963Z,70.62
2019-01-31T04:24:33.614Z,70.63
2019-01-31T04:26:59.793Z,71.70
2019-01-31T04:29:25.944Z,71.95
2019-01-31T04:31:52.096Z,71.67
2019-01-31T04:34:18.375Z,71.48
2019-01-31T04:36:44.533Z,71.08
2019-01-31T04:39:10.778Z,70.46
2019-01-31T04:41:36.966Z,70.27
2019-01-31T04:44:03.617Z,69.92
2019-01-31T04:46:29.876Z,69.61
2019-01-31T04:48:56.062Z,69.67
2019-01-31T04:51:22.325Z,69.43
2019-01-31T04:53:48.681Z,69.53
2019-01-31T04:56:14.962Z,69.04
2019-01-31T04:58:41.121Z,69.07
2019-01-31T05:01:07.304Z,69.81
2019-01-31T05:03:33.471Z,69.77
2019-01-31T05:05:59.647Z,70.11
2019-01-31T05:08:25.805Z,69.95
2019-01-31T05:10:51.986Z,70.63
2019-01-31T05:13:18.301Z,71.16
2019-01-31T05:15:44.454Z,70.55
2019-01-31T05:18:10.642Z,70.32
2019-01-31T05:20:36.898Z,70.21
2019-01-31T05:23:03.046Z,69.71
2019-01-31T05:25:29.241Z,68.86
2019-01-31T05:27:55.389Z,69.18
2019-01-31T05:30:21.546Z,69.91
2019-01-31T05:32:47.734Z,69.54
2019-01-31T05:35:13.883Z,69.10
2019-01-31T05:37:40.043Z,69.42
2019-01-31T05:40:09.439Z,69.36
2019-01-31T05:42:35.588Z,69.64
2019-01-31T05:45:01.842Z,69.52
2019-01-31T05:47:28.028Z,69.67
2019-01-31T05:49:54.181Z,69.37
2019-01-31T05:52:20.348Z,69.17
2019-01-31T05:54:46.527Z,68.77
2019-01-31T05:57:12.696Z,68.70
2019-01-31T05:59:38.885Z,68.66
2019-01-31T06:02:05.259Z,68.78
2019-01-31T06:04:31.671Z,68.41
2019-01-31T06:06:57.838Z,69.12
2019-01-31T06:09:24.017Z,68.99
2019-01-31T06:11:50.183Z,69.83
2019-01-31T06:14:16.396Z,70.41
2019-01-31T06:16:42.618Z,71.62
2019-01-31T06:19:08.771Z,71.82
2019-01-31T06:21:34.923Z,72.42
2019-01-31T06:24:01.225Z,71.50
2019-01-31T06:26:27.499Z,70.60
2019-01-31T06:28:53.655Z,70.00
2019-01-31T06:31:19.945Z,69.98
2019-01-31T06:33:46.106Z,70.21
2019-01-31T06:36:12.374Z,69.38
2019-01-31T06:38:38.560Z,69.16
2019-01-31T06:41:04.728Z,68.53
2019-01-31T06:43:30.987Z,68.69
2019-01-31T06:45:57.269Z,68.79
2019-01-31T06:48:23.423Z,68.54
2019-01-31T06:50:49.585Z,68.63
2019-01-31T06:53:15.774Z,68.76
2019-01-31T06:55:41.958Z,68.43
2019-01-31T06:58:08.118Z,68.15
2019-01-31T07:00:34.322Z,67.95
2019-01-31T07:03:00.478Z,67.87
2019-01-31T07:05:26.639Z,68.77
2019-01-31T07:07:52.830Z,69.60
2019-01-31T07:10:21.582Z,68.67
2019-01-31T07:12:47.745Z,67.15
2019-01-31T07:15:14.929Z,67.02
2019-01-31T07:17:41.082Z,67.01
2019-01-31T07:20:15.485Z,66.71
2019-01-31T07:22:41.801Z,65.37
2019-01-31T07:25:11.775Z,64.44
2019-01-31T07:27:37.929Z,63.32
2019-01-31T07:30:10.416Z,62.75
2019-01-31T07:32:36.585Z,63.02
2019-01-31T07:35:05.932Z,63.57
2019-01-31T07:37:32.138Z,64.03
2019-01-31T07:39:58.299Z,64.30
2019-01-31T07:42:24.559Z,64.93
2019-01-31T07:44:50.885Z,64.25
2019-01-31T07:47:17.023Z,63.27
2019-01-31T07:49:43.186Z,62.63
2019-01-31T07:52:09.400Z,64.05
2019-01-31T07:54:35.557Z,64.50
2019-01-31T07:57:01.709Z,64.37
2019-01-31T07:59:27.986Z,63.91
2019-01-31T08:01:54.139Z,63.00
2019-01-31T08:04:20.414Z,62.30
2019-01-31T08:06:46.611Z,62.57
2019-01-31T08:09:12.771Z,62.04
2019-01-31T08:11:38.922Z,60.44
2019-01-31T08:14:05.703Z,60.14
2019-01-31T08:16:31.910Z,61.34
2019-01-31T08:18:58.062Z,63.42
2019-01-31T08:21:24.243Z,62.73
2019-01-31T08:23:50.510Z,60.88
2019-01-31T08:26:16.670Z,60.67
2019-01-31T08:28:42.874Z,58.35
2019-01-31T08:31:09.225Z,57.01
2019-01-31T08:33:35.385Z,57.07
2019-01-31T08:36:01.679Z,56.11
2019-01-31T08:38:27.836Z,57.48
2019-01-31T08:40:54.000Z,58.21
2019-01-31T08:43:20.664Z,60.42
2019-01-31T08:45:47.058Z,59.77
2019-01-31T08:48:13.236Z,58.74
2019-01-31T08:50:39.631Z,57.49
2019-01-31T08:53:05.904Z,56.94
2019-01-31T08:55:32.169Z,55.68
2019-01-31T08:57:58.359Z,55.98
2019-01-31T09:00:30.751Z,56.50
2019-01-31T09:02:57.231Z,56.07
2019-01-31T09:05:23.425Z,57.00
2019-01-31T09:07:49.580Z,56.60
2019-01-31T09:10:28.012Z,58.58
2019-01-31T09:12:54.730Z,55.82
2019-01-31T09:15:22.385Z,55.41
2019-01-31T09:17:49.630Z,55.34
2019-01-31T09:20:28.390Z,55.79
2019-01-31T09:23:04.219Z,54.97
2019-01-31T09:25:54.205Z,55.61
2019-01-31T09:28:35.884Z,57.47
2019-01-31T09:31:27.109Z,56.98
2019-01-31T09:34:03.001Z,57.17
2019-01-31T09:36:55.408Z,56.96
2019-01-31T09:39:46.546Z,57.98
2019-01-31T09:42:26.611Z,55.07
2019-01-31T09:45:18.061Z,54.00
2019-01-31T09:47:59.595Z,55.12
2019-01-31T09:50:52.416Z,53.63
2019-01-31T09:53:37.480Z,54.42
2019-01-31T09:56:13.118Z,53.01
2019-01-31T09:59:01.027Z,52.02
2019-01-31T10:01:55.552Z,51.30
2019-01-31T10:04:31.197Z,50.54
2019-01-31T10:07:03.159Z,52.91
2019-01-31T10:09:41.766Z,54.61
2019-01-31T10:12:20.248Z,57.08
2019-01-31T10:14:58.778Z,58.20
2019-01-31T10:17:31.542Z,55.81
2019-01-31T10:20:22.364Z,54.27
2019-01-31T10:22:58.124Z,52.39
2019-01-31T10:25:40.332Z,51.06
2019-01-31T10:28:40.045Z,52.01
2019-01-31T10:31:28.479Z,52.83
2019-01-31T10:34:10.138Z,52.10
2019-01-31T10:36:39.900Z,51.20
2019-01-31T10:39:18.317Z,50.88
2019-01-31T10:42:23.749Z,49.96
2019-01-31T10:45:08.618Z,48.39
2019-01-31T10:47:53.003Z,47.18
2019-01-31T10:50:45.948Z,46.50
2019-01-31T10:53:18.478Z,47.91
2019-01-31T10:56:11.212Z,48.13
2019-01-31T10:58:43.847Z,50.97
2019-01-31T11:01:28.726Z,55.97
2019-01-31T11:04:10.102Z,54.63
2019-01-31T11:07:00.051Z,54.89
2019-01-31T11:09:45.257Z,55.08
2019-01-31T11:12:17.910Z,55.36
2019-01-31T11:14:47.839Z,55.33
2019-01-31T11:17:20.831Z,54.75
2019-01-31T11:20:02.306Z,53.76
2019-01-31T11:22:41.318Z,52.59
2019-01-31T11:25:26.293Z,49.06
2019-01-31T11:28:08.249Z,47.29
2019-01-31T11:30:56.150Z,46.34
2019-01-31T11:33:35.129Z,46.20
2019-01-31T11:36:07.926Z,45.88
2019-01-31T11:38:40.953Z,48.75
2019-01-31T11:41:27.659Z,52.62
2019-01-31T11:44:15.490Z,53.50
2019-01-31T11:46:45.378Z,55.37
2019-01-31T11:49:30.418Z,53.16
2019-01-31T11:52:00.213Z,53.79
2019-01-31T11:54:35.790Z,52.14
2019-01-31T11:57:22.481Z,52.06
2019-01-31T11:59:48.675Z,50.63
2019-01-31T12:02:15.144Z,48.51
2019-01-31T12:04:41.407Z,47.56
2019-01-31T12:07:07.605Z,49.24
2019-01-31T12:09:33.810Z,51.69
2019-01-31T12:12:00.076Z,50.52
2019-01-31T12:14:26.311Z,50.38
2019-01-31T12:16:52.628Z,50.82
2019-01-31T12:19:19.212Z,52.43
2019-01-31T12:21:45.745Z,51.48
2019-01-31T12:24:16.456Z,47.94
2019-01-31T12:26:40.679Z,48.72
2019-01-31T12:29:06.886Z,49.50
2019-01-31T12:31:33.053Z,49.15
2019-01-31T12:33:59.215Z,50.81
2019-01-31T12:36:25.521Z,51.97
2019-01-31T12:38:54.845Z,53.71
2019-01-31T12:41:20.357Z,53.27
2019-01-31T12:43:46.772Z,54.08
2019-01-31T12:46:13.041Z,52.92
2019-01-31T12:48:39.231Z,53.34
2019-01-31T12:51:05.530Z,52.35
2019-01-31T12:53:31.704Z,55.03
2019-01-31T12:55:58.007Z,54.87
2019-01-31T12:58:33.312Z,54.45
2019-01-31T13:00:52.463Z,53.39
2019-01-31T13:03:18.633Z,53.21
2019-01-31T13:05:44.927Z,53.65
2019-01-31T13:08:11.088Z,55.41
2019-01-31T13:10:37.256Z,55.25
2019-01-31T13:13:04.067Z,54.79
2019-01-31T13:15:30.237Z,54.75
2019-01-31T13:17:56.504Z,57.08
2019-01-31T13:20:23.597Z,58.86
2019-01-31T13:22:52.868Z,58.29
2019-01-31T13:25:20.511Z,57.31
2019-01-31T13:27:46.975Z,57.77
2019-01-31T13:30:18.525Z,56.08
2019-01-31T13:32:44.778Z,55.41
2019-01-31T13:35:12.875Z,55.59
2019-01-31T13:37:39.142Z,57.67
2019-01-31T13:40:23.660Z,56.95
2019-01-31T13:42:50.624Z,56.37
2019-01-31T13:45:20.088Z,56.71
2019-01-31T13:47:46.286Z,55.32
2019-01-31T13:50:14.753Z,54.55
2019-01-31T13:52:41.034Z,54.21
2019-01-31T13:55:10.942Z,53.58
2019-01-31T13:57:37.109Z,52.67
2019-01-31T14:00:06.993Z,53.50
2019-01-31T14:02:33.194Z,54.23
2019-01-31T14:04:59.361Z,55.39
2019-01-31T14:07:27.589Z,55.85
2019-01-31T14:09:53.637Z,56.64
2019-01-31T14:12:19.811Z,56.79
2019-01-31T14:14:45.983Z,58.40
2019-01-31T14:17:12.183Z,57.54
2019-01-31T14:19:38.343Z,58.11
2019-01-31T14:22:04.620Z,56.83
2019-01-31T14:24:30.809Z,56.83
2019-01-31T14:26:57.029Z,56.01
2019-01-31T14:29:23.181Z,56.40
2019-01-31T14:31:49.374Z,56.67
2019-01-31T14:34:15.532Z,56.94
2019-01-31T14:36:41.690Z,56.86
2019-01-31T14:39:08.190Z,57.06
2019-01-31T14:41:34.452Z,58.46
2019-01-31T14:44:00.617Z,60.85
2019-01-31T14:46:26.943Z,61.33
2019-01-31T14:48:53.107Z,60.87
2019-01-31T14:51:19.271Z,60.57
2019-01-31T14:53:45.476Z,60.17
2019-01-31T14:56:11.642Z,60.01
2019-01-31T14:58:37.801Z,60.08
2019-01-31T15:01:04.006Z,60.65
2019-01-31T15:03:30.183Z,61.73
2019-01-31T15:05:56.451Z,62.57
2019-01-31T15:08:23.994Z,61.96
2019-01-31T15:10:50.164Z,62.06
2019-01-31T15:13:16.331Z,62.83
2019-01-31T15:15:42.628Z,64.69
2019-01-31T15:18:08.792Z,64.07
2019-01-31T15:20:38.455Z,63.58
2019-01-31T15:23:05.160Z,62.78
2019-01-31T15:25:31.472Z,62.71
2019-01-31T15:27:57.829Z,62.42
2019-01-31T15:30:27.361Z,62.14
2019-01-31T15:32:53.614Z,62.62
2019-01-31T15:35:19.879Z,62.54
2019-01-31T15:37:46.066Z,63.56
2019-01-31T15:40:15.831Z,62.85
2019-01-31T15:42:42.090Z,62.82
2019-01-31T15:45:08.484Z,62.38
2019-01-31T15:47:34.646Z,62.87
2019-01-31T15:50:00.807Z,62.94
2019-01-31T15:52:26.997Z,62.58
2019-01-31T15:54:53.254Z,61.38
2019-01-31T15:57:19.514Z,63.71
2019-01-31T15:59:45.705Z,64.84
2019-01-31T16:02:11.962Z,64.16
2019-01-31T16:04:38.231Z,63.72
2019-01-31T16:07:04.530Z,64.02
2019-01-31T16:09:30.698Z,65.04
2019-01-31T16:11:59.640Z,64.85
2019-01-31T16:14:25.056Z,64.47
2019-01-31T16:16:51.244Z,64.74
2019-01-31T16:19:17.395Z,65.11
2019-01-31T16:21:44.420Z,65.45
2019-01-31T16:24:10.582Z,65.52
2019-01-31T16:26:36.734Z,65.80
2019-01-31T16:29:03.556Z,65.69
2019-01-31T16:31:29.711Z,66.21
2019-01-31T16:33:55.873Z,66.08
2019-01-31T16:36:22.043Z,65.94
2019-01-31T16:38:48.215Z,66.59
2019-01-31T16:41:17.161Z,66.59
2019-01-31T16:43:44.496Z,66.86
2019-01-31T16:46:10.653Z,67.70
2019-01-31T16:48:36.819Z,67.55
2019-01-31T16:51:03.006Z,67.28
2019-01-31T16:53:29.276Z,66.58
2019-01-31T16:55:55.450Z,66.53
2019-01-31T16:58:21.742Z,66.62
2019-01-31T17:00:47.991Z,67.05
2019-01-31T17:03:14.244Z,67.23
2019-01-31T17:05:42.887Z,67.53
2019-01-31T17:08:09.082Z,67.26
2019-01-31T17:10:35.205Z,67.82
2019-01-31T17:13:01.505Z,67.53
2019-01-31T17:15:27.659Z,67.20
2019-01-31T17:17:53.938Z,67.07
2019-01-31T17:20:26.179Z,66.44
2019-01-31T17:22:52.443Z,66.13
2019-01-31T17:25:19.843Z,66.15
2019-01-31T17:27:46.050Z,65.70
2019-01-31T17:30:23.826Z,64.63
2019-01-31T17:32:50.424Z,65.75
2019-01-31T17:35:16.586Z,65.69
2019-01-31T17:37:42.878Z,65.51
2019-01-31T17:40:12.811Z,65.87
2019-01-31T17:42:39.079Z,66.34
2019-01-31T17:45:08.835Z,65.66
2019-01-31T17:47:35.031Z,65.74
2019-01-31T17:50:01.252Z,66.04
2019-01-31T17:52:27.466Z,65.91
2019-01-31T17:54:55.952Z,66.58
2019-01-31T17:57:21.832Z,66.10
2019-01-31T17:59:48.101Z,65.98
2019-01-31T18:02:14.406Z,67.77
2019-01-31T18:04:40.656Z,68.34
2019-01-31T18:07:06.922Z,67.45
2019-01-31T18:09:33.115Z,68.09
2019-01-31T18:11:59.275Z,69.01
2019-01-31T18:14:25.529Z,68.51
2019-01-31T18:16:51.820Z,69.28
2019-01-31T18:19:17.972Z,68.88
2019-01-31T18:21:44.127Z,68.54
2019-01-31T18:24:10.327Z,69.93
2019-01-31T18:26:36.575Z,69.74
2019-01-31T18:29:02.923Z,69.58
2019-01-31T18:31:29.215Z,70.32
2019-01-31T18:33:55.379Z,70.94
2019-01-31T18:36:21.543Z,70.32
2019-01-31T18:38:47.739Z,70.58
2019-01-31T18:41:13.891Z,69.72
2019-01-31T18:43:40.041Z,69.74
2019-01-31T18:46:06.240Z,71.43
2019-01-31T18:48:32.432Z,70.03
2019-01-31T18:50:58.697Z,70.02
2019-01-31T18:53:24.992Z,70.98
2019-01-31T18:55:51.246Z,71.70
2019-01-31T18:58:17.403Z,71.63
2019-01-31T19:00:45.304Z,72.58
2019-01-31T19:03:11.566Z,72.87
2019-01-31T19:05:37.861Z,73.17
2019-01-31T19:08:07.158Z,72.94
2019-01-31T19:10:42.684Z,73.16
2019-01-31T19:13:00.439Z,72.99
2019-01-31T19:15:26.732Z,73.18
2019-01-31T19:17:52.998Z,72.65
2019-01-31T19:20:24.396Z,71.69
2019-01-31T19:22:51.604Z,72.16
2019-01-31T19:25:17.989Z,73.33
2019-01-31T19:27:44.252Z,73.24
2019-01-31T19:30:28.668Z,72.40
2019-01-31T19:32:55.113Z,73.20
2019-01-31T19:35:21.395Z,73.53
2019-01-31T19:37:47.615Z,73.16
2019-01-31T19:40:22.185Z,73.21
2019-01-31T19:42:48.493Z,73.51
2019-01-31T19:45:21.254Z,73.12
2019-01-31T19:47:47.425Z,73.15
2019-01-31T19:50:13.976Z,72.62
2019-01-31T19:52:40.158Z,73.45
2019-01-31T19:55:06.434Z,73.02
2019-01-31T19:57:32.611Z,72.81
2019-01-31T19:59:58.807Z,72.53
2019-01-31T20:02:25.066Z,72.08
2019-01-31T20:04:51.222Z,72.01
2019-01-31T20:07:17.510Z,72.09
2019-01-31T20:09:45.080Z,72.88
2019-01-31T20:12:11.329Z,72.62
2019-01-31T20:14:37.521Z,71.92
2019-01-31T20:17:08.394Z,72.24
2019-01-31T20:19:33.780Z,71.25
2019-01-31T20:21:59.959Z,71.35
2019-01-31T20:24:26.113Z,71.98
2019-01-31T20:26:52.376Z,71.60
2019-01-31T20:29:18.568Z,70.90
2019-01-31T20:31:44.725Z,72.39
2019-01-31T20:34:10.887Z,71.49
2019-01-31T20:36:37.186Z,71.67
2019-01-31T20:39:06.045Z,71.08
2019-01-31T20:41:32.309Z,72.46
2019-01-31T20:43:58.532Z,71.61
2019-01-31T20:46:24.792Z,72.78
2019-01-31T20:48:51.055Z,73.56
2019-01-31T20:51:17.348Z,72.03
2019-01-31T20:53:43.502Z,72.86
2019-01-31T20:56:09.668Z,72.60
2019-01-31T20:58:35.959Z,73.72
2019-01-31T21:01:02.216Z,73.46
2019-01-31T21:03:28.374Z,74.85
2019-01-31T21:05:54.552Z,72.80
2019-01-31T21:08:20.867Z,73.95
2019-01-31T21:10:47.186Z,74.85
2019-01-31T21:13:13.376Z,74.33
2019-01-31T21:15:39.636Z,74.64
2019-01-31T21:18:06.300Z,74.88
2019-01-31T21:20:32.497Z,73.82
2019-01-31T21:22:58.639Z,74.17
2019-01-31T21:25:24.796Z,74.24
2019-01-31T21:27:52.394Z,75.34
2019-01-31T21:30:33.706Z,75.75
2019-01-31T21:32:59.999Z,75.45
2019-01-31T21:35:27.469Z,74.62
2019-01-31T21:37:53.619Z,73.47
2019-01-31T21:40:21.220Z,72.96
2019-01-31T21:42:47.676Z,73.39
2019-01-31T21:45:18.734Z,73.88
2019-01-31T21:47:44.935Z,75.16
2019-01-31T21:50:14.694Z,74.41
2019-01-31T21:52:40.958Z,74.81
2019-01-31T21:55:08.856Z,75.11
2019-01-31T21:57:35.115Z,74.86
2019-01-31T22:00:01.678Z,74.08
2019-01-31T22:02:27.882Z,73.55
2019-01-31T22:04:54.037Z,72.01
2019-01-31T22:07:20.293Z,72.05
2019-01-31T22:09:46.476Z,72.27
2019-01-31T22:12:12.632Z,71.84
2019-01-31T22:14:38.889Z,71.92
2019-01-31T22:17:14.375Z,71.44
2019-01-31T22:19:33.139Z,71.37
2019-01-31T22:21:59.298Z,71.53
2019-01-31T22:24:25.504Z,71.11
2019-01-31T22:26:51.663Z,70.33
2019-01-31T22:29:17.826Z,70.64
2019-01-31T22:31:44.027Z,70.44
2019-01-31T22:34:10.285Z,71.26
2019-01-31T22:36:36.588Z,71.89
2019-01-31T22:39:06.282Z,72.33
2019-01-31T22:41:32.435Z,71.93
2019-01-31T22:43:58.727Z,72.36
2019-01-31T22:46:24.903Z,72.15
2019-01-31T22:48:51.071Z,71.99
2019-01-31T22:51:17.224Z,71.50
2019-01-31T22:53:43.538Z,70.72
2019-01-31T22:56:09.700Z,70.55
2019-01-31T22:58:35.957Z,69.87
2019-01-31T23:01:07.689Z,70.08
2019-01-31T23:03:34.364Z,69.78
2019-01-31T23:06:00.664Z,69.70
2019-01-31T23:08:26.965Z,69.54
2019-01-31T23:10:53.238Z,69.30
2019-01-31T23:13:19.507Z,70.20
2019-01-31T23:15:45.816Z,70.48
2019-01-31T23:18:11.992Z,69.97
2019-01-31T23:20:38.249Z,69.63
2019-01-31T23:23:04.445Z,70.11
2019-01-31T23:25:39.643Z,70.12
2019-01-31T23:27:58.668Z,70.44
2019-01-31T23:30:25.023Z,69.63
2019-01-31T23:32:51.194Z,69.52
2019-01-31T23:35:17.464Z,69.57
2019-01-31T23:37:43.731Z,69.16
2019-01-31T23:40:11.790Z,68.75
2019-01-31T23:42:37.958Z,68.93
2019-01-31T23:45:07.879Z,68.96
2019-01-31T23:47:34.141Z,68.96
2019-01-31T23:50:00.412Z,68.27
2019-01-31T23:52:26.611Z,68.00
2019-01-31T23:54:52.776Z,68.45
2019-01-31T23:57:19.054Z,68.57
2019-01-31T23:59:45.240Z,68.48
